Terminal Aerodrome Forecast
Issued by NWS Cleveland, OH

Home | Current Version | Previous Version | Graphics & Text | Print | Product List | Glossary On
Versions: 1 2 3 4 5 6 7 8 9 10 11 12 13 14 15 16 17 18
000
FTUS41 KCLE 022341
TAFMFD
TAF
KMFD 022341Z 0300/0324 01008KT P6SM SCT250
     FM030300 05005KT P6SM BKN250
      TEMPO 0309/0312 4SM BR
     FM031300 05008KT P6SM BKN250
     FM031900 03008KT P6SM SCT045 OVC250=

USA.gov is the U.S. government's official web portal to all federal, state and local government web resources and services.